sensor_id;sensor_type;location;lat;lon;timestamp;P1;durP1;ratioP1;P2;durP2;ratioP2
10299;SDS011;5195;48.562;9.192;2022-11-20T00:00:19;3.80;;;3.50;;
10299;SDS011;5195;48.562;9.192;2022-11-20T00:02:55;3.67;;;3.37;;
10299;SDS011;5195;48.562;9.192;2022-11-20T00:05:32;4.07;;;3.70;;
10299;SDS011;5195;48.562;9.192;2022-11-20T00:08:06;2.97;;;2.77;;
10299;SDS011;5195;48.562;9.192;2022-11-20T00:10:42;3.53;;;3.13;;
10299;SDS011;5195;48.562;9.192;2022-11-20T00:13:17;4.13;;;3.43;;
10299;SDS011;5195;48.562;9.192;2022-11-20T00:15:56;3.60;;;3.40;;
10299;SDS011;5195;48.562;9.192;2022-11-20T00:18:32;3.00;;;2.80;;
10299;SDS011;5195;48.562;9.192;2022-11-20T00:21:09;3.40;;;3.20;;
10299;SDS011;5195;48.562;9.192;2022-11-20T00:23:42;3.70;;;3.40;;
10299;SDS011;5195;48.562;9.192;2022-11-20T00:26:18;3.58;;;3.37;;
10299;SDS011;5195;48.562;9.192;2022-11-20T00:28:54;3.33;;;3.03;;
10299;SDS011;5195;48.562;9.192;2022-11-20T00:31:30;3.20;;;3.00;;
10299;SDS011;5195;48.562;9.192;2022-11-20T00:34:05;3.55;;;3.35;;
10299;SDS011;5195;48.562;9.192;2022-11-20T00:36:41;3.00;;;2.80;;
10299;SDS011;5195;48.562;9.192;2022-11-20T00:39:17;3.35;;;3.20;;
10299;SDS011;5195;48.562;9.192;2022-11-20T00:41:53;3.00;;;2.90;;
10299;SDS011;5195;48.562;9.192;2022-11-20T00:44:28;3.60;;;3.30;;
10299;SDS011;5195;48.562;9.192;2022-11-20T00:47:05;3.10;;;2.90;;
10299;SDS011;5195;48.562;9.192;2022-11-20T00:49:40;3.33;;;3.12;;
10299;SDS011;5195;48.562;9.192;2022-11-20T00:52:17;3.55;;;3.25;;
10299;SDS011;5195;48.562;9.192;2022-11-20T00:54:52;3.00;;;2.80;;
10299;SDS011;5195;48.562;9.192;2022-11-20T00:57:28;2.93;;;2.80;;
10299;SDS011;5195;48.562;9.192;2022-11-20T01:00:04;3.40;;;3.10;;
10299;SDS011;5195;48.562;9.192;2022-11-20T01:02:40;3.10;;;2.90;;
10299;SDS011;5195;48.562;9.192;2022-11-20T01:05:15;3.40;;;3.20;;
10299;SDS011;5195;48.562;9.192;2022-11-20T01:07:52;2.70;;;2.60;;
10299;SDS011;5195;48.562;9.192;2022-11-20T01:10:27;2.93;;;2.63;;
10299;SDS011;5195;48.562;9.192;2022-11-20T01:13:03;3.55;;;3.35;;
10299;SDS011;5195;48.562;9.192;2022-11-20T01:16:02;3.40;;;3.20;;
10299;SDS011;5195;48.562;9.192;2022-11-20T01:18:38;3.70;;;3.50;;
10299;SDS011;5195;48.562;9.192;2022-11-20T01:21:16;3.17;;;3.00;;
10299;SDS011;5195;48.562;9.192;2022-11-20T01:23:51;3.50;;;3.30;;
10299;SDS011;5195;48.562;9.192;2022-11-20T01:26:27;3.20;;;3.00;;
10299;SDS011;5195;48.562;9.192;2022-11-20T01:29:02;3.92;;;3.70;;
10299;SDS011;5195;48.562;9.192;2022-11-20T01:31:38;3.60;;;3.40;;
10299;SDS011;5195;48.562;9.192;2022-11-20T01:34:15;3.03;;;2.83;;
10299;SDS011;5195;48.562;9.192;2022-11-20T01:36:50;3.83;;;3.50;;
10299;SDS011;5195;48.562;9.192;2022-11-20T01:39:26;3.85;;;3.65;;
10299;SDS011;5195;48.562;9.192;2022-11-20T01:42:02;4.05;;;3.85;;
10299;SDS011;5195;48.562;9.192;2022-11-20T01:44:58;3.90;;;3.60;;
10299;SDS011;5195;48.562;9.192;2022-11-20T01:47:44;3.70;;;3.50;;
10299;SDS011;5195;48.562;9.192;2022-11-20T01:50:19;3.50;;;3.30;;
10299;SDS011;5195;48.562;9.192;2022-11-20T01:53:01;4.10;;;3.70;;
10299;SDS011;5195;48.562;9.192;2022-11-20T01:55:39;4.30;;;4.00;;
10299;SDS011;5195;48.562;9.192;2022-11-20T01:58:14;4.37;;;4.07;;
10299;SDS011;5195;48.562;9.192;2022-11-20T02:00:49;3.77;;;3.60;;
10299;SDS011;5195;48.562;9.192;2022-11-20T02:03:25;4.00;;;3.70;;
10299;SDS011;5195;48.562;9.192;2022-11-20T02:06:13;4.57;;;4.27;;
10299;SDS011;5195;48.562;9.192;2022-11-20T02:08:47;4.10;;;3.80;;
10299;SDS011;5195;48.562;9.192;2022-11-20T02:11:23;4.37;;;4.18;;
10299;SDS011;5195;48.562;9.192;2022-11-20T02:13:59;4.07;;;3.87;;
10299;SDS011;5195;48.562;9.192;2022-11-20T02:16:35;3.90;;;3.57;;
10299;SDS011;5195;48.562;9.192;2022-11-20T02:19:15;4.80;;;4.40;;
10299;SDS011;5195;48.562;9.192;2022-11-20T02:21:47;4.00;;;3.67;;
10299;SDS011;5195;48.562;9.192;2022-11-20T02:24:22;4.80;;;4.50;;
10299;SDS011;5195;48.562;9.192;2022-11-20T02:27:02;4.68;;;4.37;;
10299;SDS011;5195;48.562;9.192;2022-11-20T02:29:53;4.55;;;4.35;;
10299;SDS011;5195;48.562;9.192;2022-11-20T02:32:29;4.70;;;4.40;;
10299;SDS011;5195;48.562;9.192;2022-11-20T02:35:08;4.50;;;4.20;;
10299;SDS011;5195;48.562;9.192;2022-11-20T02:37:50;4.72;;;4.43;;
10299;SDS011;5195;48.562;9.192;2022-11-20T02:40:24;4.57;;;4.28;;
10299;SDS011;5195;48.562;9.192;2022-11-20T02:43:00;4.10;;;3.80;;
10299;SDS011;5195;48.562;9.192;2022-11-20T02:45:35;4.57;;;4.22;;
10299;SDS011;5195;48.562;9.192;2022-11-20T02:48:12;3.70;;;3.50;;
10299;SDS011;5195;48.562;9.192;2022-11-20T02:50:47;4.30;;;4.00;;
10299;SDS011;5195;48.562;9.192;2022-11-20T02:53:24;3.67;;;3.40;;
10299;SDS011;5195;48.562;9.192;2022-11-20T02:55:59;3.53;;;3.33;;
10299;SDS011;5195;48.562;9.192;2022-11-20T02:58:35;3.33;;;3.13;;
10299;SDS011;5195;48.562;9.192;2022-11-20T03:01:10;4.25;;;3.95;;
10299;SDS011;5195;48.562;9.192;2022-11-20T03:03:47;4.20;;;3.80;;
10299;SDS011;5195;48.562;9.192;2022-11-20T03:06:22;3.90;;;3.60;;
10299;SDS011;5195;48.562;9.192;2022-11-20T03:08:59;3.50;;;3.30;;
10299;SDS011;5195;48.562;9.192;2022-11-20T03:11:34;3.50;;;3.30;;
10299;SDS011;5195;48.562;9.192;2022-11-20T03:14:10;3.57;;;3.27;;
10299;SDS011;5195;48.562;9.192;2022-11-20T03:16:45;3.65;;;3.42;;
10299;SDS011;5195;48.562;9.192;2022-11-20T03:19:21;3.27;;;3.13;;
10299;SDS011;5195;48.562;9.192;2022-11-20T03:21:56;3.60;;;3.40;;
10299;SDS011;5195;48.562;9.192;2022-11-20T03:24:32;3.53;;;3.33;;
10299;SDS011;5195;48.562;9.192;2022-11-20T03:27:08;2.80;;;2.63;;
10299;SDS011;5195;48.562;9.192;2022-11-20T03:29:43;3.00;;;2.80;;
10299;SDS011;5195;48.562;9.192;2022-11-20T03:32:19;3.30;;;3.00;;
10299;SDS011;5195;48.562;9.192;2022-11-20T03:34:54;3.23;;;3.03;;
10299;SDS011;5195;48.562;9.192;2022-11-20T03:37:30;3.50;;;3.30;;
10299;SDS011;5195;48.562;9.192;2022-11-20T03:40:06;3.20;;;3.00;;
10299;SDS011;5195;48.562;9.192;2022-11-20T03:42:42;3.20;;;3.00;;
10299;SDS011;5195;48.562;9.192;2022-11-20T03:45:21;3.40;;;3.20;;
10299;SDS011;5195;48.562;9.192;2022-11-20T03:47:57;3.37;;;2.97;;
10299;SDS011;5195;48.562;9.192;2022-11-20T03:50:33;3.03;;;2.83;;
10299;SDS011;5195;48.562;9.192;2022-11-20T03:53:09;3.13;;;2.90;;
10299;SDS011;5195;48.562;9.192;2022-11-20T03:55:45;2.57;;;2.47;;
10299;SDS011;5195;48.562;9.192;2022-11-20T03:58:20;2.57;;;2.37;;
10299;SDS011;5195;48.562;9.192;2022-11-20T04:00:56;2.63;;;2.53;;
10299;SDS011;5195;48.562;9.192;2022-11-20T04:03:31;2.30;;;2.20;;
10299;SDS011;5195;48.562;9.192;2022-11-20T04:06:08;2.60;;;2.40;;
10299;SDS011;5195;48.562;9.192;2022-11-20T04:08:43;2.80;;;2.60;;
10299;SDS011;5195;48.562;9.192;2022-11-20T04:11:19;2.60;;;2.50;;
10299;SDS011;5195;48.562;9.192;2022-11-20T04:13:55;2.53;;;2.33;;
10299;SDS011;5195;48.562;9.192;2022-11-20T04:16:30;2.83;;;2.63;;
10299;SDS011;5195;48.562;9.192;2022-11-20T04:19:06;2.90;;;2.70;;
10299;SDS011;5195;48.562;9.192;2022-11-20T04:21:42;2.80;;;2.60;;
10299;SDS011;5195;48.562;9.192;2022-11-20T04:24:17;2.20;;;2.10;;
10299;SDS011;5195;48.562;9.192;2022-11-20T04:26:52;3.40;;;2.00;;
10299;SDS011;5195;48.562;9.192;2022-11-20T04:29:29;2.70;;;2.40;;
10299;SDS011;5195;48.562;9.192;2022-11-20T04:32:04;2.50;;;2.30;;
10299;SDS011;5195;48.562;9.192;2022-11-20T04:34:40;2.50;;;2.33;;
10299;SDS011;5195;48.562;9.192;2022-11-20T04:37:16;2.57;;;2.47;;
10299;SDS011;5195;48.562;9.192;2022-11-20T04:39:52;2.53;;;2.33;;
10299;SDS011;5195;48.562;9.192;2022-11-20T04:42:27;2.60;;;2.40;;
10299;SDS011;5195;48.562;9.192;2022-11-20T04:45:06;2.30;;;2.10;;
10299;SDS011;5195;48.562;9.192;2022-11-20T04:47:42;2.37;;;2.23;;
10299;SDS011;5195;48.562;9.192;2022-11-20T04:50:18;2.30;;;2.20;;
10299;SDS011;5195;48.562;9.192;2022-11-20T04:52:54;2.30;;;2.20;;
10299;SDS011;5195;48.562;9.192;2022-11-20T04:55:29;2.00;;;1.90;;
10299;SDS011;5195;48.562;9.192;2022-11-20T04:58:06;2.08;;;1.98;;
10299;SDS011;5195;48.562;9.192;2022-11-20T05:00:41;1.97;;;1.87;;
10299;SDS011;5195;48.562;9.192;2022-11-20T05:03:17;2.33;;;2.12;;
10299;SDS011;5195;48.562;9.192;2022-11-20T05:05:52;2.00;;;1.90;;
10299;SDS011;5195;48.562;9.192;2022-11-20T05:08:28;2.07;;;1.97;;
10299;SDS011;5195;48.562;9.192;2022-11-20T05:11:04;2.13;;;1.90;;
10299;SDS011;5195;48.562;9.192;2022-11-20T05:13:39;2.77;;;2.30;;
10299;SDS011;5195;48.562;9.192;2022-11-20T05:16:16;2.20;;;2.10;;
10299;SDS011;5195;48.562;9.192;2022-11-20T05:18:54;2.50;;;2.10;;
10299;SDS011;5195;48.562;9.192;2022-11-20T05:21:33;2.40;;;2.20;;
10299;SDS011;5195;48.562;9.192;2022-11-20T05:24:08;2.00;;;1.90;;
10299;SDS011;5195;48.562;9.192;2022-11-20T05:26:45;2.03;;;1.93;;
10299;SDS011;5195;48.562;9.192;2022-11-20T05:29:20;2.20;;;2.10;;
10299;SDS011;5195;48.562;9.192;2022-11-20T05:31:56;2.10;;;2.00;;
10299;SDS011;5195;48.562;9.192;2022-11-20T05:34:31;2.00;;;1.90;;
10299;SDS011;5195;48.562;9.192;2022-11-20T05:37:07;2.27;;;2.17;;
10299;SDS011;5195;48.562;9.192;2022-11-20T05:39:43;2.20;;;2.10;;
10299;SDS011;5195;48.562;9.192;2022-11-20T05:42:18;2.05;;;1.95;;
10299;SDS011;5195;48.562;9.192;2022-11-20T05:45:08;2.00;;;1.90;;
10299;SDS011;5195;48.562;9.192;2022-11-20T05:47:43;2.15;;;2.00;;
10299;SDS011;5195;48.562;9.192;2022-11-20T05:50:19;2.17;;;1.70;;
10299;SDS011;5195;48.562;9.192;2022-11-20T05:52:54;1.80;;;1.80;;
10299;SDS011;5195;48.562;9.192;2022-11-20T05:55:30;1.60;;;1.50;;
10299;SDS011;5195;48.562;9.192;2022-11-20T05:58:06;2.20;;;2.10;;
10299;SDS011;5195;48.562;9.192;2022-11-20T06:00:42;1.87;;;1.77;;
10299;SDS011;5195;48.562;9.192;2022-11-20T06:03:17;1.80;;;1.70;;
10299;SDS011;5195;48.562;9.192;2022-11-20T06:05:53;2.00;;;1.90;;
10299;SDS011;5195;48.562;9.192;2022-11-20T06:08:29;2.00;;;1.90;;
10299;SDS011;5195;48.562;9.192;2022-11-20T06:11:08;2.00;;;1.90;;
10299;SDS011;5195;48.562;9.192;2022-11-20T06:13:43;1.90;;;1.80;;
10299;SDS011;5195;48.562;9.192;2022-11-20T06:16:19;3.20;;;1.70;;
10299;SDS011;5195;48.562;9.192;2022-11-20T06:18:54;9.60;;;2.13;;
10299;SDS011;5195;48.562;9.192;2022-11-20T06:21:30;1.80;;;1.70;;
10299;SDS011;5195;48.562;9.192;2022-11-20T06:24:06;2.90;;;1.80;;
10299;SDS011;5195;48.562;9.192;2022-11-20T06:29:45;1.87;;;1.77;;
10299;SDS011;5195;48.562;9.192;2022-11-20T06:32:20;2.03;;;1.92;;
10299;SDS011;5195;48.562;9.192;2022-11-20T06:34:56;1.87;;;1.77;;
10299;SDS011;5195;48.562;9.192;2022-11-20T06:37:32;1.65;;;1.55;;
10299;SDS011;5195;48.562;9.192;2022-11-20T06:40:07;1.90;;;1.80;;
10299;SDS011;5195;48.562;9.192;2022-11-20T06:42:44;1.80;;;1.70;;
10299;SDS011;5195;48.562;9.192;2022-11-20T06:45:20;1.90;;;1.80;;
10299;SDS011;5195;48.562;9.192;2022-11-20T06:47:56;1.90;;;1.80;;
10299;SDS011;5195;48.562;9.192;2022-11-20T06:50:31;2.13;;;1.63;;
10299;SDS011;5195;48.562;9.192;2022-11-20T06:53:06;1.80;;;1.70;;
10299;SDS011;5195;48.562;9.192;2022-11-20T06:55:46;1.40;;;1.40;;
10299;SDS011;5195;48.562;9.192;2022-11-20T06:58:21;1.47;;;1.37;;
10299;SDS011;5195;48.562;9.192;2022-11-20T07:01:01;1.90;;;1.80;;
10299;SDS011;5195;48.562;9.192;2022-11-20T07:03:36;1.77;;;1.67;;
10299;SDS011;5195;48.562;9.192;2022-11-20T07:06:11;1.60;;;1.50;;
10299;SDS011;5195;48.562;9.192;2022-11-20T07:08:47;1.80;;;1.70;;
10299;SDS011;5195;48.562;9.192;2022-11-20T07:11:24;1.70;;;1.50;;
10299;SDS011;5195;48.562;9.192;2022-11-20T07:13:59;1.47;;;1.47;;
10299;SDS011;5195;48.562;9.192;2022-11-20T07:16:35;2.00;;;1.90;;
10299;SDS011;5195;48.562;9.192;2022-11-20T07:19:10;1.70;;;1.60;;
10299;SDS011;5195;48.562;9.192;2022-11-20T07:21:46;2.45;;;2.08;;
10299;SDS011;5195;48.562;9.192;2022-11-20T07:27:17;17.60;;;15.80;;
10299;SDS011;5195;48.562;9.192;2022-11-20T07:29:53;8.67;;;7.77;;
10299;SDS011;5195;48.562;9.192;2022-11-20T07:32:28;2.90;;;2.70;;
10299;SDS011;5195;48.562;9.192;2022-11-20T07:35:05;2.27;;;2.17;;
10299;SDS011;5195;48.562;9.192;2022-11-20T07:37:41;4.43;;;4.12;;
10299;SDS011;5195;48.562;9.192;2022-11-20T07:40:17;3.00;;;2.80;;
10299;SDS011;5195;48.562;9.192;2022-11-20T07:42:53;2.80;;;2.60;;
10299;SDS011;5195;48.562;9.192;2022-11-20T07:45:28;2.20;;;2.00;;
10299;SDS011;5195;48.562;9.192;2022-11-20T07:48:04;2.47;;;2.37;;
10299;SDS011;5195;48.562;9.192;2022-11-20T07:50:39;1.73;;;1.63;;
10299;SDS011;5195;48.562;9.192;2022-11-20T07:53:18;1.50;;;1.40;;
10299;SDS011;5195;48.562;9.192;2022-11-20T07:55:53;2.10;;;2.00;;
10299;SDS011;5195;48.562;9.192;2022-11-20T07:58:29;2.50;;;2.00;;
10299;SDS011;5195;48.562;9.192;2022-11-20T08:01:05;1.90;;;1.83;;
10299;SDS011;5195;48.562;9.192;2022-11-20T08:03:40;2.23;;;2.13;;
10299;SDS011;5195;48.562;9.192;2022-11-20T08:06:17;1.80;;;1.70;;
10299;SDS011;5195;48.562;9.192;2022-11-20T08:08:52;1.75;;;1.65;;
10299;SDS011;5195;48.562;9.192;2022-11-20T08:11:28;1.90;;;1.80;;
10299;SDS011;5195;48.562;9.192;2022-11-20T08:14:23;1.90;;;1.80;;
10299;SDS011;5195;48.562;9.192;2022-11-20T08:17:00;1.53;;;1.50;;
10299;SDS011;5195;48.562;9.192;2022-11-20T08:19:36;1.80;;;1.70;;
10299;SDS011;5195;48.562;9.192;2022-11-20T08:22:12;2.10;;;2.00;;
10299;SDS011;5195;48.562;9.192;2022-11-20T08:24:47;1.70;;;1.60;;
10299;SDS011;5195;48.562;9.192;2022-11-20T08:27:25;1.80;;;1.70;;
10299;SDS011;5195;48.562;9.192;2022-11-20T08:30:00;2.00;;;1.90;;
10299;SDS011;5195;48.562;9.192;2022-11-20T08:32:37;2.00;;;1.90;;
10299;SDS011;5195;48.562;9.192;2022-11-20T08:35:12;3.40;;;2.90;;
10299;SDS011;5195;48.562;9.192;2022-11-20T08:37:48;1.30;;;1.20;;
10299;SDS011;5195;48.562;9.192;2022-11-20T08:40:23;1.47;;;1.17;;
10299;SDS011;5195;48.562;9.192;2022-11-20T08:42:59;1.50;;;1.50;;
10299;SDS011;5195;48.562;9.192;2022-11-20T08:45:35;2.20;;;2.10;;
10299;SDS011;5195;48.562;9.192;2022-11-20T08:48:14;1.23;;;1.20;;
10299;SDS011;5195;48.562;9.192;2022-11-20T08:50:50;1.45;;;1.45;;
10299;SDS011;5195;48.562;9.192;2022-11-20T08:53:27;1.40;;;1.40;;
10299;SDS011;5195;48.562;9.192;2022-11-20T08:56:02;1.10;;;1.10;;
10299;SDS011;5195;48.562;9.192;2022-11-20T08:58:39;1.00;;;1.00;;
10299;SDS011;5195;48.562;9.192;2022-11-20T09:01:15;1.37;;;1.27;;
10299;SDS011;5195;48.562;9.192;2022-11-20T09:03:50;1.33;;;1.30;;
10299;SDS011;5195;48.562;9.192;2022-11-20T09:06:26;1.40;;;1.40;;
10299;SDS011;5195;48.562;9.192;2022-11-20T09:09:02;1.40;;;1.30;;
10299;SDS011;5195;48.562;9.192;2022-11-20T09:11:37;1.55;;;1.45;;
10299;SDS011;5195;48.562;9.192;2022-11-20T09:14:13;3.53;;;1.40;;
10299;SDS011;5195;48.562;9.192;2022-11-20T09:16:49;1.45;;;1.45;;
10299;SDS011;5195;48.562;9.192;2022-11-20T09:19:27;1.20;;;1.20;;
10299;SDS011;5195;48.562;9.192;2022-11-20T09:22:03;1.40;;;1.30;;
10299;SDS011;5195;48.562;9.192;2022-11-20T09:24:40;1.30;;;1.20;;
10299;SDS011;5195;48.562;9.192;2022-11-20T09:27:16;1.20;;;1.20;;
10299;SDS011;5195;48.562;9.192;2022-11-20T09:29:59;1.23;;;1.23;;
10299;SDS011;5195;48.562;9.192;2022-11-20T09:32:34;1.17;;;1.17;;
10299;SDS011;5195;48.562;9.192;2022-11-20T09:35:10;1.40;;;1.30;;
10299;SDS011;5195;48.562;9.192;2022-11-20T09:37:46;2.77;;;1.40;;
10299;SDS011;5195;48.562;9.192;2022-11-20T09:40:23;1.50;;;1.40;;
10299;SDS011;5195;48.562;9.192;2022-11-20T09:54:16;1.60;;;1.50;;
10299;SDS011;5195;48.562;9.192;2022-11-20T09:56:54;1.60;;;1.60;;
10299;SDS011;5195;48.562;9.192;2022-11-20T09:59:32;1.13;;;1.03;;
10299;SDS011;5195;48.562;9.192;2022-11-20T10:02:16;1.30;;;1.20;;
10299;SDS011;5195;48.562;9.192;2022-11-20T10:05:05;1.17;;;1.10;;
10299;SDS011;5195;48.562;9.192;2022-11-20T10:07:44;1.30;;;1.20;;
10299;SDS011;5195;48.562;9.192;2022-11-20T10:10:45;4.80;;;4.50;;
10299;SDS011;5195;48.562;9.192;2022-11-20T10:19:10;3.67;;;3.47;;
10299;SDS011;5195;48.562;9.192;2022-11-20T10:22:21;3.70;;;1.93;;
10299;SDS011;5195;48.562;9.192;2022-11-20T10:25:06;2.63;;;2.53;;
10299;SDS011;5195;48.562;9.192;2022-11-20T10:30:43;2.20;;;2.10;;
10299;SDS011;5195;48.562;9.192;2022-11-20T10:33:22;1.10;;;1.10;;
10299;SDS011;5195;48.562;9.192;2022-11-20T10:37:08;1.50;;;1.40;;
10299;SDS011;5195;48.562;9.192;2022-11-20T10:41:42;1.80;;;1.70;;
10299;SDS011;5195;48.562;9.192;2022-11-20T10:44:25;2.80;;;2.70;;
10299;SDS011;5195;48.562;9.192;2022-11-20T10:47:18;2.20;;;2.10;;
10299;SDS011;5195;48.562;9.192;2022-11-20T10:49:54;2.80;;;2.70;;
10299;SDS011;5195;48.562;9.192;2022-11-20T10:52:36;4.47;;;4.07;;
10299;SDS011;5195;48.562;9.192;2022-11-20T10:58:39;2.20;;;1.80;;
10299;SDS011;5195;48.562;9.192;2022-11-20T11:01:16;4.03;;;3.83;;
10299;SDS011;5195;48.562;9.192;2022-11-20T11:03:51;4.55;;;4.32;;
10299;SDS011;5195;48.562;9.192;2022-11-20T11:06:32;2.03;;;1.93;;
10299;SDS011;5195;48.562;9.192;2022-11-20T11:09:12;3.50;;;3.30;;
10299;SDS011;5195;48.562;9.192;2022-11-20T11:11:47;2.00;;;1.90;;
10299;SDS011;5195;48.562;9.192;2022-11-20T11:14:22;3.00;;;2.80;;
10299;SDS011;5195;48.562;9.192;2022-11-20T11:16:58;1.67;;;1.58;;
10299;SDS011;5195;48.562;9.192;2022-11-20T11:19:34;1.83;;;1.73;;
10299;SDS011;5195;48.562;9.192;2022-11-20T11:22:10;3.47;;;3.27;;
10299;SDS011;5195;48.562;9.192;2022-11-20T11:24:52;3.00;;;2.80;;
10299;SDS011;5195;48.562;9.192;2022-11-20T11:27:27;1.40;;;1.30;;
10299;SDS011;5195;48.562;9.192;2022-11-20T11:30:13;1.90;;;1.80;;
10299;SDS011;5195;48.562;9.192;2022-11-20T11:32:48;1.27;;;1.27;;
10299;SDS011;5195;48.562;9.192;2022-11-20T11:35:27;1.30;;;1.20;;
10299;SDS011;5195;48.562;9.192;2022-11-20T11:38:10;1.57;;;1.07;;
10299;SDS011;5195;48.562;9.192;2022-11-20T11:40:42;1.00;;;1.00;;
10299;SDS011;5195;48.562;9.192;2022-11-20T11:43:19;1.03;;;1.03;;
10299;SDS011;5195;48.562;9.192;2022-11-20T11:49:20;1.20;;;1.10;;
10299;SDS011;5195;48.562;9.192;2022-11-20T11:54:50;8.20;;;6.40;;
10299;SDS011;5195;48.562;9.192;2022-11-20T12:00:17;2.10;;;1.90;;
10299;SDS011;5195;48.562;9.192;2022-11-20T12:05:35;2.30;;;1.20;;
10299;SDS011;5195;48.562;9.192;2022-11-20T12:14:52;1.23;;;1.13;;
10299;SDS011;5195;48.562;9.192;2022-11-20T12:16:52;1.07;;;0.97;;
10299;SDS011;5195;48.562;9.192;2022-11-20T12:19:33;0.87;;;0.83;;
10299;SDS011;5195;48.562;9.192;2022-11-20T12:22:06;0.90;;;0.90;;
10299;SDS011;5195;48.562;9.192;2022-11-20T12:24:42;1.63;;;1.20;;
10299;SDS011;5195;48.562;9.192;2022-11-20T12:30:15;2.55;;;2.45;;
10299;SDS011;5195;48.562;9.192;2022-11-20T12:33:12;1.90;;;1.17;;
10299;SDS011;5195;48.562;9.192;2022-11-20T13:05:16;1.50;;;1.40;;
10299;SDS011;5195;48.562;9.192;2022-11-20T13:07:47;1.20;;;1.13;;
10299;SDS011;5195;48.562;9.192;2022-11-20T13:10:41;2.10;;;2.00;;
10299;SDS011;5195;48.562;9.192;2022-11-20T13:13:14;1.60;;;1.60;;
10299;SDS011;5195;48.562;9.192;2022-11-20T13:15:53;0.90;;;0.90;;
10299;SDS011;5195;48.562;9.192;2022-11-20T13:18:35;2.13;;;1.40;;
10299;SDS011;5195;48.562;9.192;2022-11-20T13:21:15;1.40;;;1.40;;
10299;SDS011;5195;48.562;9.192;2022-11-20T13:23:53;1.23;;;1.17;;
10299;SDS011;5195;48.562;9.192;2022-11-20T13:26:29;1.35;;;1.25;;
10299;SDS011;5195;48.562;9.192;2022-11-20T13:29:11;1.57;;;1.57;;
10299;SDS011;5195;48.562;9.192;2022-11-20T13:31:46;0.90;;;0.90;;
10299;SDS011;5195;48.562;9.192;2022-11-20T13:34:26;1.40;;;1.30;;
10299;SDS011;5195;48.562;9.192;2022-11-20T13:37:00;1.10;;;0.80;;
10299;SDS011;5195;48.562;9.192;2022-11-20T13:39:36;1.50;;;1.33;;
10299;SDS011;5195;48.562;9.192;2022-11-20T13:44:50;1.30;;;1.20;;
10299;SDS011;5195;48.562;9.192;2022-11-20T13:47:26;1.53;;;1.07;;
10299;SDS011;5195;48.562;9.192;2022-11-20T13:50:03;1.33;;;1.00;;
10299;SDS011;5195;48.562;9.192;2022-11-20T13:52:48;1.20;;;1.10;;
10299;SDS011;5195;48.562;9.192;2022-11-20T14:01:13;1.00;;;0.90;;
10299;SDS011;5195;48.562;9.192;2022-11-20T14:03:46;1.30;;;0.93;;
10299;SDS011;5195;48.562;9.192;2022-11-20T14:06:29;0.90;;;0.90;;
10299;SDS011;5195;48.562;9.192;2022-11-20T14:09:04;1.08;;;0.98;;
10299;SDS011;5195;48.562;9.192;2022-11-20T14:11:46;1.27;;;1.00;;
10299;SDS011;5195;48.562;9.192;2022-11-20T14:14:23;1.90;;;1.00;;
10299;SDS011;5195;48.562;9.192;2022-11-20T14:17:05;1.87;;;0.93;;
10299;SDS011;5195;48.562;9.192;2022-11-20T14:19:39;2.80;;;2.60;;
10299;SDS011;5195;48.562;9.192;2022-11-20T14:22:17;2.15;;;1.60;;
10299;SDS011;5195;48.562;9.192;2022-11-20T14:27:37;3.10;;;2.10;;
10299;SDS011;5195;48.562;9.192;2022-11-20T14:30:12;1.07;;;0.90;;
10299;SDS011;5195;48.562;9.192;2022-11-20T14:32:48;1.73;;;1.10;;
10299;SDS011;5195;48.562;9.192;2022-11-20T14:35:27;1.20;;;1.10;;
10299;SDS011;5195;48.562;9.192;2022-11-20T14:38:02;1.47;;;1.37;;
10299;SDS011;5195;48.562;9.192;2022-11-20T14:40:38;1.07;;;1.07;;
10299;SDS011;5195;48.562;9.192;2022-11-20T14:43:28;3.15;;;1.20;;
10299;SDS011;5195;48.562;9.192;2022-11-20T14:46:03;7.25;;;6.65;;
10299;SDS011;5195;48.562;9.192;2022-11-20T14:48:48;2.40;;;2.20;;
10299;SDS011;5195;48.562;9.192;2022-11-20T14:51:28;2.00;;;1.90;;
10299;SDS011;5195;48.562;9.192;2022-11-20T14:59:33;1.10;;;1.00;;
10299;SDS011;5195;48.562;9.192;2022-11-20T15:02:09;1.33;;;1.23;;
10299;SDS011;5195;48.562;9.192;2022-11-20T15:05:23;1.75;;;1.52;;
10299;SDS011;5195;48.562;9.192;2022-11-20T15:07:36;1.93;;;1.47;;
10299;SDS011;5195;48.562;9.192;2022-11-20T15:10:22;1.70;;;1.50;;
10299;SDS011;5195;48.562;9.192;2022-11-20T15:13:02;2.00;;;1.83;;
10299;SDS011;5195;48.562;9.192;2022-11-20T15:15:44;2.30;;;2.20;;
10299;SDS011;5195;48.562;9.192;2022-11-20T15:18:56;2.00;;;1.83;;
10299;SDS011;5195;48.562;9.192;2022-11-20T15:21:10;11.33;;;10.47;;
10299;SDS011;5195;48.562;9.192;2022-11-20T15:23:45;3.37;;;3.07;;
10299;SDS011;5195;48.562;9.192;2022-11-20T15:26:23;3.10;;;2.90;;
10299;SDS011;5195;48.562;9.192;2022-11-20T15:29:00;2.50;;;2.30;;
10299;SDS011;5195;48.562;9.192;2022-11-20T15:31:36;1.70;;;1.60;;
10299;SDS011;5195;48.562;9.192;2022-11-20T15:34:12;3.43;;;3.13;;
10299;SDS011;5195;48.562;9.192;2022-11-20T15:36:50;21.00;;;18.83;;
10299;SDS011;5195;48.562;9.192;2022-11-20T15:39:25;4.93;;;4.53;;
10299;SDS011;5195;48.562;9.192;2022-11-20T15:42:01;3.40;;;3.20;;
10299;SDS011;5195;48.562;9.192;2022-11-20T15:44:37;2.70;;;2.60;;
10299;SDS011;5195;48.562;9.192;2022-11-20T15:47:12;16.80;;;15.10;;
10299;SDS011;5195;48.562;9.192;2022-11-20T15:49:48;44.67;;;27.50;;
10299;SDS011;5195;48.562;9.192;2022-11-20T15:52:25;54.40;;;48.40;;
10299;SDS011;5195;48.562;9.192;2022-11-20T15:55:00;20.93;;;18.97;;
10299;SDS011;5195;48.562;9.192;2022-11-20T15:57:36;18.03;;;16.30;;
10299;SDS011;5195;48.562;9.192;2022-11-20T16:00:12;10.20;;;9.48;;
10299;SDS011;5195;48.562;9.192;2022-11-20T16:02:47;10.10;;;7.85;;
10299;SDS011;5195;48.562;9.192;2022-11-20T16:05:23;12.88;;;11.85;;
10299;SDS011;5195;48.562;9.192;2022-11-20T16:07:59;4.37;;;4.07;;
10299;SDS011;5195;48.562;9.192;2022-11-20T16:10:34;4.90;;;4.60;;
10299;SDS011;5195;48.562;9.192;2022-11-20T16:13:14;5.07;;;3.10;;
10299;SDS011;5195;48.562;9.192;2022-11-20T16:16:29;3.62;;;3.33;;
10299;SDS011;5195;48.562;9.192;2022-11-20T16:18:48;5.43;;;5.12;;
10299;SDS011;5195;48.562;9.192;2022-11-20T16:21:23;2.50;;;2.40;;
10299;SDS011;5195;48.562;9.192;2022-11-20T16:24:10;3.40;;;3.20;;
10299;SDS011;5195;48.562;9.192;2022-11-20T16:26:44;6.63;;;6.20;;
10299;SDS011;5195;48.562;9.192;2022-11-20T16:29:20;6.97;;;6.47;;
10299;SDS011;5195;48.562;9.192;2022-11-20T16:31:56;4.50;;;4.20;;
10299;SDS011;5195;48.562;9.192;2022-11-20T16:34:31;4.95;;;4.40;;
10299;SDS011;5195;48.562;9.192;2022-11-20T16:37:07;6.32;;;5.82;;
10299;SDS011;5195;48.562;9.192;2022-11-20T16:39:43;4.47;;;4.17;;
10299;SDS011;5195;48.562;9.192;2022-11-20T16:42:19;3.60;;;3.30;;
10299;SDS011;5195;48.562;9.192;2022-11-20T16:44:54;9.05;;;8.40;;
10299;SDS011;5195;48.562;9.192;2022-11-20T16:47:34;5.15;;;4.72;;
10299;SDS011;5195;48.562;9.192;2022-11-20T16:50:11;4.87;;;4.57;;
10299;SDS011;5195;48.562;9.192;2022-11-20T16:52:46;15.83;;;14.20;;
10299;SDS011;5195;48.562;9.192;2022-11-20T16:55:22;20.52;;;18.35;;
10299;SDS011;5195;48.562;9.192;2022-11-20T16:57:58;8.80;;;8.10;;
10299;SDS011;5195;48.562;9.192;2022-11-20T17:00:37;10.77;;;9.70;;
10299;SDS011;5195;48.562;9.192;2022-11-20T17:03:12;20.93;;;18.70;;
10299;SDS011;5195;48.562;9.192;2022-11-20T17:05:48;24.98;;;19.60;;
10299;SDS011;5195;48.562;9.192;2022-11-20T17:08:23;29.40;;;21.17;;
10299;SDS011;5195;48.562;9.192;2022-11-20T17:11:03;22.92;;;17.52;;
10299;SDS011;5195;48.562;9.192;2022-11-20T17:13:36;19.83;;;12.70;;
10299;SDS011;5195;48.562;9.192;2022-11-20T17:16:13;7.10;;;6.47;;
10299;SDS011;5195;48.562;9.192;2022-11-20T17:18:50;20.10;;;14.47;;
10299;SDS011;5195;48.562;9.192;2022-11-20T17:21:26;5.55;;;5.25;;
10299;SDS011;5195;48.562;9.192;2022-11-20T17:24:03;3.50;;;3.30;;
10299;SDS011;5195;48.562;9.192;2022-11-20T17:26:38;12.03;;;10.73;;
10299;SDS011;5195;48.562;9.192;2022-11-20T17:29:14;4.90;;;4.47;;
10299;SDS011;5195;48.562;9.192;2022-11-20T17:31:49;16.45;;;10.65;;
10299;SDS011;5195;48.562;9.192;2022-11-20T17:34:25;13.50;;;8.57;;
10299;SDS011;5195;48.562;9.192;2022-11-20T17:37:00;19.10;;;12.67;;
10299;SDS011;5195;48.562;9.192;2022-11-20T17:39:36;9.67;;;6.20;;